Aviation Digital Data Service (ADDS)

Output produced by METARs form (0833 UTC 23 November 2014)
found at http://aviationweather.gov/adds/metars/
 
KBPT 230831Z AUTO 25005KT 2SM +RA BR BKN055 OVC080 17/16 A2970 RMK AO2 P0025 T01670161